Date,TemperatureHighF,TemperatureAvgF,TemperatureLowF,DewpointHighF,DewpointAvgF,DewpointLowF,HumidityHigh,HumidityAvg,HumidityLow,PressureMaxIn,PressureMinIn,WindSpeedMaxMPH,WindSpeedAvgMPH,GustSpeedMaxMPH,PrecipitationSumIn
2013-10-1,62.8,59.9,56.8,60.2,57.9,55.1,96,93,89,29.61,29.54,8,5,19,0.31
2013-10-2,67.3,61.8,59.0,63.4,60.0,57.0,97,94,85,29.55,29.51,8,3,18,0.37
2013-10-3,63.9,60.9,57.7,62.5,59.9,57.5,100,97,91,29.56,29.46,4,2,11,0.82
2013-10-4,62.6,57.6,51.6,58.9,56.3,50.5,100,95,83,29.91,29.49,2,0,7,0.02
2013-10-5,67.8,55.9,47.5,58.6,52.4,46.9,99,89,68,30.13,29.91,3,1,10,0.00
2013-10-6,66.4,60.1,53.2,63.0,58.2,50.6,98,94,89,30.13,30.07,7,4,17,0.01
2013-10-7,64.6,61.8,59.5,61.1,59.3,57.5,98,92,84,30.10,30.02,7,5,19,0.00
2013-10-8,60.8,57.3,50.7,58.9,54.7,48.8,98,91,77,30.27,30.06,4,1,10,0.01
2013-10-9,54.1,49.2,40.3,50.9,45.4,37.9,96,87,68,30.28,30.16,11,3,22,0.03
2013-10-10,54.0,43.6,34.0,43.5,38.9,32.5,97,84,62,30.36,30.24,7,2,17,0.01
2013-10-11,56.7,46.4,37.6,50.6,43.6,36.1,96,90,78,30.38,30.32,5,2,16,0.00
2013-10-12,54.9,51.2,48.7,51.4,48.4,45.6,96,90,83,30.32,30.13,5,3,16,0.00
2013-10-13,52.3,49.8,42.1,51.3,47.9,40.2,98,93,84,30.13,29.94,4,2,9,0.00
2013-10-14,54.9,47.7,40.6,49.2,45.5,39.0,100,92,75,29.94,29.84,5,1,11,0.02
2013-10-15,59.4,47.6,36.5,50.3,44.5,35.7,100,90,68,29.87,29.81,5,1,11,0.01
2013-10-16,58.8,52.4,48.0,54.2,49.8,46.7,99,91,82,29.81,29.48,8,2,16,0.88
2013-10-17,63.0,53.4,47.3,56.5,51.2,46.4,98,92,76,29.84,29.70,3,1,7,0.01
2013-10-18,57.6,55.6,52.5,56.4,53.7,49.8,98,93,86,29.84,29.42,11,4,24,0.31
2013-10-19,60.4,56.6,51.8,57.4,54.9,49.7,98,94,88,29.42,29.36,8,4,17,0.20
2013-10-20,60.3,54.2,49.5,54.7,51.8,48.5,97,92,78,29.50,29.22,9,4,19,0.07
2013-10-21,61.2,55.4,48.6,59.8,54.3,47.7,98,96,92,29.51,29.17,11,4,23,0.28
2013-10-22,62.4,57.7,55.6,58.3,55.5,54.1,97,93,83,29.18,28.98,9,5,21,0.09
2013-10-23,55.9,49.6,40.5,54.6,45.8,38.6,98,87,66,29.71,28.98,5,3,15,0.02
2013-10-24,61.2,51.5,39.9,55.4,48.5,38.9,100,90,78,29.79,29.55,10,4,20,0.04
2013-10-25,59.9,56.7,53.2,56.7,54.9,52.4,97,93,87,29.55,29.30,10,5,20,0.24
2013-10-26,55.6,50.8,48.4,52.5,48.8,46.2,97,93,82,29.48,29.15,12,4,31,0.26
2013-10-27,55.6,50.7,47.3,50.6,47.6,44.4,95,89,82,29.14,29.01,11,6,27,0.09
2013-10-28,53.4,48.1,45.3,47.2,45.0,42.5,96,89,73,29.57,28.98,6,3,16,0.04
2013-10-29,51.1,43.9,38.8,45.1,40.6,36.1,96,88,75,29.99,29.57,6,2,15,0.02
2013-10-30,55.8,47.9,39.9,54.6,45.7,38.3,96,92,87,29.99,29.68,13,5,28,0.04
2013-10-31,55.9,47.9,43.9,49.7,45.2,42.4,96,91,77,29.91,29.74,7,4,18,0.19